Time;durP1;ratioP1;P1;durP2;ratioP2;P2;SDS_P1;SDS_P2;PMS_P1;PMS_P2;Temp;Humidity;BMP_temperature;BMP_pressure;BME280_temperature;BME280_humidity;BME280_pressure;Samples;Min_cycle;Max_cycle;Signal;HPM_P1;HPM_P2
2023/04/29 07:38:12;;;;;;;17.60;9.30;;;;;;;10.49;62.85;94574.13;4693739;30;20626;-79
2023/04/29 10:13:02;;;;;;;15.55;6.35;;;;;;;18.30;36.46;94559.50;4761791;29;20210;-80
2023/04/29 10:15:39;;;;;;;11.13;5.65;;;;;;;18.30;37.17;94554.22;4855725;28;20256;-80
2023/04/29 10:18:18;;;;;;;8.95;4.88;;;;;;;18.31;35.36;94552.41;4939055;29;20208;-80
2023/04/29 10:20:47;;;;;;;7.38;4.60;;;;;;;18.20;34.84;94554.28;4967840;28;20656;-78
2023/04/29 10:23:15;;;;;;;11.32;5.10;;;;;;;18.10;35.21;94551.66;4970487;28;20212;-84
2023/04/29 10:25:44;;;;;;;10.15;5.53;;;;;;;17.93;36.51;94536.19;4969629;28;20211;-80
2023/04/29 10:28:16;;;;;;;14.25;4.93;;;;;;;17.81;36.79;94519.88;4974353;28;21037;-80
2023/04/29 10:30:44;;;;;;;9.23;5.10;;;;;;;17.86;36.22;94554.09;4975937;28;20746;-81
2023/04/29 10:33:11;;;;;;;9.80;5.07;;;;;;;17.72;36.21;94532.00;4976711;28;20658;-81
2023/04/29 10:35:38;;;;;;;12.05;5.22;;;;;;;17.65;35.63;94546.47;4968650;28;20201;-81
2023/04/29 10:38:13;;;;;;;7.72;4.57;;;;;;;17.52;36.40;94545.13;4977651;28;20212;-81
2023/04/29 10:40:45;;;;;;;9.93;4.65;;;;;;;17.40;37.03;94542.00;4970741;28;20255;-81
2023/04/29 10:43:13;;;;;;;9.85;5.10;;;;;;;17.38;37.40;94536.19;4977223;28;21033;-82
2023/04/29 10:45:41;;;;;;;5.32;4.00;;;;;;;17.54;36.92;94540.44;4965018;28;20217;-82
2023/04/29 10:48:12;;;;;;;8.20;4.72;;;;;;;17.60;36.81;94526.25;5034112;28;20217;-81
2023/04/29 10:51:00;;;;;;;7.07;4.43;;;;;;;17.77;34.06;94545.16;5034741;28;20264;-80
2023/04/29 10:53:29;;;;;;;12.15;5.10;;;;;;;17.70;35.08;94536.75;5010465;28;20664;-80
2023/04/29 10:55:58;;;;;;;10.80;4.13;;;;;;;17.75;35.37;94531.47;5021792;28;20217;-80
2023/04/29 10:58:37;;;;;;;7.22;4.07;;;;;;;17.71;35.28;94527.00;5027558;28;20211;-81
2023/04/29 11:01:06;;;;;;;7.47;4.10;;;;;;;17.80;35.86;94531.47;5027881;28;20199;-82
2023/04/29 11:03:58;;;;;;;7.93;3.92;;;;;;;17.79;34.98;94516.75;5032733;28;20191;-81
2023/04/29 11:06:26;;;;;;;9.02;3.80;;;;;;;17.85;33.00;94528.84;5034545;28;20732;-80
2023/04/29 11:09:04;;;;;;;6.90;2.90;;;;;;;17.56;30.45;94531.22;5032377;28;20225;-81
2023/04/29 11:11:59;;;;;;;6.33;3.00;;;;;;;17.32;31.76;94532.78;5033332;28;20202;-80
2023/04/29 11:14:30;;;;;;;7.43;3.70;;;;;;;17.07;33.28;94519.63;5038736;28;20324;-80
2023/04/29 11:16:58;;;;;;;5.77;3.73;;;;;;;17.05;33.61;94515.69;5038346;28;20194;-80
2023/04/29 11:19:30;;;;;;;7.23;3.53;;;;;;;16.95;32.69;94521.69;5028910;28;20321;-80
2023/04/29 11:22:12;;;;;;;4.87;3.47;;;;;;;16.85;32.81;94522.47;5033063;28;20221;-80
2023/04/29 11:24:53;;;;;;;9.20;3.23;;;;;;;16.79;31.63;94531.41;5023447;28;20214;-81
2023/04/29 11:27:24;;;;;;;6.37;2.90;;;;;;;16.68;31.48;94521.91;5034639;28;20201;-79
2023/04/29 11:29:54;;;;;;;3.87;2.37;;;;;;;16.64;31.66;94518.22;5031943;28;20244;-81
2023/04/29 11:32:22;;;;;;;7.40;2.70;;;;;;;16.63;31.61;94523.72;5044676;28;20271;-80
2023/04/29 11:34:49;;;;;;;4.03;2.70;;;;;;;16.66;31.27;94521.38;5039134;28;20227;-80
2023/04/29 11:37:20;;;;;;;6.53;2.77;;;;;;;16.51;31.86;94508.19;5041457;28;20248;-82
2023/04/29 11:39:48;;;;;;;3.20;2.30;;;;;;;16.60;31.71;94521.63;5044389;28;20574;-81
2023/04/29 11:42:20;;;;;;;5.47;3.20;;;;;;;16.58;32.40;94515.84;5035910;28;20206;-81
2023/04/29 11:44:47;;;;;;;6.00;3.13;;;;;;;16.51;32.39;94523.16;5049973;28;20197;-81
2023/04/29 11:47:15;;;;;;;6.40;3.13;;;;;;;16.44;32.73;94518.13;5034395;28;20197;-80
2023/04/29 11:49:42;;;;;;;4.13;2.97;;;;;;;16.36;32.59;94519.41;5047444;28;20273;-80
2023/04/29 11:52:09;;;;;;;4.57;2.93;;;;;;;16.36;32.82;94510.78;5042887;28;20620;-80
2023/04/29 11:54:36;;;;;;;7.93;3.70;;;;;;;16.29;32.69;94507.59;5049109;28;20318;-80
2023/04/29 11:57:04;;;;;;;4.10;2.87;;;;;;;16.29;32.79;94512.81;5050304;28;20202;-80
2023/04/29 11:59:32;;;;;;;4.57;2.77;;;;;;;16.26;32.87;94513.34;5050649;28;20209;-80
2023/04/29 12:02:00;;;;;;;7.03;3.30;;;;;;;16.25;32.95;94499.44;5051287;28;20194;-78
2023/04/29 12:04:28;;;;;;;6.40;3.10;;;;;;;16.24;34.05;94504.94;5058661;28;20288;-78
2023/04/29 12:06:57;;;;;;;6.67;2.53;;;;;;;16.27;35.06;94502.59;5050690;28;20270;-78
2023/04/29 12:09:24;;;;;;;3.07;2.40;;;;;;;16.33;35.38;94498.94;5044723;28;20204;-78
2023/04/29 12:11:51;;;;;;;3.70;2.67;;;;;;;16.30;35.49;94506.56;5051411;28;20230;-78
2023/04/29 12:14:19;;;;;;;9.27;2.80;;;;;;;16.32;35.75;94505.25;5058751;28;20221;-78
2023/04/29 12:16:46;;;;;;;5.73;2.93;;;;;;;16.31;36.61;94495.00;5043210;28;20677;-80
2023/04/29 12:19:13;;;;;;;5.13;2.50;;;;;;;16.34;36.51;94494.47;5049215;28;20202;-78
2023/04/29 12:21:51;;;;;;;5.80;2.93;;;;;;;16.29;36.80;94489.22;5047691;28;20194;-79
2023/04/29 12:24:17;;;;;;;3.57;2.80;;;;;;;16.30;37.79;94488.19;5052364;28;20198;-79
2023/04/29 12:26:46;;;;;;;5.80;2.80;;;;;;;16.35;37.83;94489.00;5052197;28;20209;-78
2023/04/29 12:29:13;;;;;;;5.60;2.83;;;;;;;16.39;38.09;94487.41;5046032;28;20251;-78
2023/04/29 12:31:40;;;;;;;3.77;2.50;;;;;;;16.42;38.30;94484.28;5039371;28;20230;-79
2023/04/29 12:34:07;;;;;;;2.93;2.40;;;;;;;16.43;37.92;94471.94;5053124;28;20245;-79
2023/04/29 12:36:36;;;;;;;7.33;2.40;;;;;;;16.52;37.78;94485.34;5052629;28;20867;-79
2023/04/29 12:39:08;;;;;;;6.07;2.80;;;;;;;16.59;36.77;94471.00;5047252;28;20205;-79
2023/04/29 12:41:39;;;;;;;7.93;3.23;;;;;;;16.58;35.55;94468.63;5044950;28;20704;-81
2023/04/29 12:44:07;;;;;;;7.77;3.40;;;;;;;16.60;36.15;94469.13;5051166;28;20201;-81
2023/04/29 12:46:37;;;;;;;5.07;2.60;;;;;;;16.58;37.62;94463.38;5046406;28;20205;-80
2023/04/29 12:49:05;;;;;;;7.87;3.30;;;;;;;16.57;38.28;94467.03;5045419;28;20201;-81
2023/04/29 12:51:32;;;;;;;7.97;3.20;;;;;;;16.57;37.69;94474.91;5047708;28;20260;-81
2023/04/29 12:54:00;;;;;;;6.17;2.80;;;;;;;16.53;37.53;94472.00;5044927;28;20228;-78
2023/04/29 12:56:28;;;;;;;5.83;3.40;;;;;;;16.50;37.53;94475.13;5034607;28;20207;-79
2023/04/29 12:58:55;;;;;;;5.23;3.47;;;;;;;16.52;37.68;94472.25;5038330;28;20203;-78
2023/04/29 13:01:22;;;;;;;9.70;4.53;;;;;;;16.60;36.97;94475.19;5052793;28;20214;-78
2023/04/29 13:03:50;;;;;;;7.83;4.03;;;;;;;16.66;37.34;94468.91;5052807;28;20212;-79
2023/04/29 13:06:17;;;;;;;6.77;3.10;;;;;;;16.78;37.59;94466.03;5052380;28;20675;-78
2023/04/29 13:08:44;;;;;;;7.40;3.67;;;;;;;16.87;38.40;94470.50;5053404;28;20202;-79
2023/04/29 13:11:12;;;;;;;4.73;3.00;;;;;;;16.91;37.97;94462.91;5049067;28;20206;-79
2023/04/29 13:13:40;;;;;;;5.73;3.33;;;;;;;16.99;37.80;94462.38;5049823;28;20641;-79
2023/04/29 13:16:08;;;;;;;9.90;3.77;;;;;;;17.01;38.18;94461.06;5049651;28;20285;-79
2023/04/29 13:18:35;;;;;;;4.37;2.80;;;;;;;17.11;37.83;94459.50;5054654;28;20663;-79
2023/04/29 13:21:02;;;;;;;3.83;2.70;;;;;;;17.23;37.83;94462.66;5053587;28;20255;-77
2023/04/29 13:23:28;;;;;;;4.77;3.23;;;;;;;17.37;37.23;94453.19;5043433;28;20645;-78
2023/04/29 13:25:55;;;;;;;6.88;2.80;;;;;;;17.51;36.98;94459.47;5041842;28;20206;-78
2023/04/29 13:28:22;;;;;;;8.35;3.90;;;;;;;17.57;36.92;94455.81;5048929;28;20202;-80
2023/04/29 13:30:51;;;;;;;7.60;3.45;;;;;;;17.65;37.61;94457.09;5046497;28;20316;-80
2023/04/29 13:33:18;;;;;;;4.90;2.72;;;;;;;17.63;38.24;94453.97;5039035;28;20209;-81
2023/04/29 13:35:45;;;;;;;6.63;2.47;;;;;;;17.73;38.20;94457.34;5045973;28;20609;-81
2023/04/29 13:38:12;;;;;;;4.00;2.47;;;;;;;17.78;38.82;94453.91;5046934;28;20214;-81
2023/04/29 13:40:39;;;;;;;3.60;2.40;;;;;;;17.68;39.03;94435.53;5050151;28;20654;-82
2023/04/29 13:43:06;;;;;;;5.43;2.60;;;;;;;17.87;39.15;94447.84;5046671;28;20198;-80
2023/04/29 13:45:33;;;;;;;6.50;2.85;;;;;;;17.91;38.17;94450.72;5046581;28;20717;-81
2023/04/29 13:48:02;;;;;;;3.45;2.28;;;;;;;17.92;38.49;94445.19;5050889;28;21718;-81
2023/04/29 13:50:28;;;;;;;3.33;2.85;;;;;;;17.87;38.79;94426.81;5047755;28;20229;-81
2023/04/29 13:52:56;;;;;;;6.32;2.50;;;;;;;18.08;39.38;94444.09;5045772;28;20203;-81
2023/04/29 13:55:23;;;;;;;6.07;2.78;;;;;;;18.20;39.54;94429.84;5044320;28;20840;-81
2023/04/29 13:57:50;;;;;;;6.60;2.85;;;;;;;18.53;38.05;94443.09;5046762;28;20190;-80
2023/04/29 14:00:17;;;;;;;5.32;2.45;;;;;;;18.79;36.96;94440.34;5048798;28;20286;-81
2023/04/29 14:02:44;;;;;;;3.67;2.58;;;;;;;18.92;36.88;94443.13;5047280;28;20205;-80
2023/04/29 14:05:13;;;;;;;3.50;2.15;;;;;;;18.99;36.13;94433.03;5046151;28;20198;-81
2023/04/29 14:07:39;;;;;;;4.90;2.33;;;;;;;19.10;36.34;94429.28;5051904;28;20259;-80
2023/04/29 14:10:07;;;;;;;3.03;2.20;;;;;;;19.08;36.09;94443.78;5045852;28;20225;-80
2023/04/29 14:12:33;;;;;;;5.97;2.55;;;;;;;19.01;36.21;94430.94;5048258;28;20676;-80
2023/04/29 14:15:00;;;;;;;3.33;2.40;;;;;;;18.79;36.44;94427.16;5046834;28;20222;-80
2023/04/29 14:17:27;;;;;;;4.07;2.60;;;;;;;18.91;36.42;94431.00;5047318;28;20201;-80
2023/04/29 14:19:54;;;;;;;4.80;2.63;;;;;;;18.90;36.48;94424.19;5044594;28;20209;-80
2023/04/29 14:22:22;;;;;;;6.10;2.20;;;;;;;18.74;36.20;94427.97;5045997;28;20204;-81
2023/04/29 14:24:50;;;;;;;4.10;2.67;;;;;;;18.52;37.06;94425.75;5044328;28;20271;-80
2023/04/29 14:27:16;;;;;;;5.75;2.78;;;;;;;18.39;37.82;94430.78;5048963;28;20635;-81
2023/04/29 14:29:43;;;;;;;5.57;2.92;;;;;;;18.31;37.54;94433.97;5045870;28;20198;-81
2023/04/29 14:32:10;;;;;;;4.13;2.90;;;;;;;18.39;37.35;94428.16;5047847;28;20715;-80
2023/04/29 14:34:37;;;;;;;3.58;2.63;;;;;;;18.42;37.82;94424.97;5046071;28;20237;-80
2023/04/29 14:37:04;;;;;;;5.18;3.28;;;;;;;18.54;37.29;94423.63;5048032;28;20198;-81
2023/04/29 14:39:32;;;;;;;6.07;3.33;;;;;;;18.64;37.49;94422.78;5047684;28;20194;-81
2023/04/29 14:41:59;;;;;;;4.38;3.00;;;;;;;18.76;37.45;94417.19;5037662;28;20606;-80
2023/04/29 14:44:25;;;;;;;8.85;4.38;;;;;;;18.91;36.95;94417.84;5050319;28;20282;-80
2023/04/29 14:46:52;;;;;;;7.53;4.72;;;;;;;18.90;37.28;94403.13;5047678;28;20209;-81
2023/04/29 14:49:19;;;;;;;8.48;3.70;;;;;;;18.93;37.18;94404.41;5045130;28;20205;-82
2023/04/29 14:51:46;;;;;;;9.32;3.85;;;;;;;18.95;37.49;94415.44;5046166;28;20210;-81
2023/04/29 14:54:12;;;;;;;11.38;3.90;;;;;;;18.66;37.82;94395.13;5047581;28;20198;-81
2023/04/29 14:56:40;;;;;;;6.53;3.67;;;;;;;18.60;38.32;94408.59;5043805;28;20210;-80
2023/04/29 14:59:07;;;;;;;10.80;4.72;;;;;;;18.44;38.56;94401.81;5044823;28;20579;-81
2023/04/29 15:01:35;;;;;;;5.97;3.80;;;;;;;18.28;38.78;94390.59;5043412;28;20217;-83
2023/04/29 15:04:02;;;;;;;9.07;4.03;;;;;;;18.30;38.78;94412.16;5044049;28;20202;-82
2023/04/29 15:06:29;;;;;;;7.63;5.22;;;;;;;18.18;38.71;94403.81;5045848;28;20206;-83
2023/04/29 15:08:56;;;;;;;7.72;3.35;;;;;;;18.09;38.77;94395.66;5051188;28;20229;-82
2023/04/29 15:11:23;;;;;;;5.65;4.15;;;;;;;18.00;39.33;94383.38;5049969;28;20206;-82
2023/04/29 15:13:51;;;;;;;7.53;3.83;;;;;;;18.07;39.33;94387.28;5049137;28;20194;-82
2023/04/29 15:16:18;;;;;;;6.18;3.10;;;;;;;17.99;38.96;94392.31;5048458;28;20696;-81
2023/04/29 15:18:45;;;;;;;6.55;3.10;;;;;;;17.96;38.34;94390.22;5057064;28;20221;-82
2023/04/29 15:21:12;;;;;;;6.68;4.00;;;;;;;17.86;38.67;94377.91;5048581;28;20256;-82
2023/04/29 15:23:39;;;;;;;14.98;4.78;;;;;;;17.89;38.56;94382.59;5048978;28;20204;-82
2023/04/29 15:26:07;;;;;;;6.00;3.70;;;;;;;17.68;39.42;94382.97;5047603;28;20289;-82
2023/04/29 15:28:34;;;;;;;6.68;3.22;;;;;;;17.61;39.51;94385.88;5049665;28;20575;-82
2023/04/29 15:31:04;;;;;;;7.30;3.47;;;;;;;17.47;39.82;94382.22;5048321;28;20253;-83
2023/04/29 15:33:31;;;;;;;7.85;3.50;;;;;;;17.39;40.13;94382.75;5038642;28;20194;-83
2023/04/29 15:35:58;;;;;;;6.43;3.03;;;;;;;17.26;39.73;94370.94;5042169;28;20317;-83
2023/04/29 15:38:25;;;;;;;10.30;3.60;;;;;;;17.21;40.18;94375.44;5042235;28;21126;-83
2023/04/29 15:40:57;;;;;;;10.17;4.10;;;;;;;17.13;40.54;94378.59;5043783;28;20274;-83
2023/04/29 15:43:24;;;;;;;5.27;3.80;;;;;;;16.98;40.86;94372.31;5047449;28;20207;-83
2023/04/29 15:45:51;;;;;;;10.93;5.00;;;;;;;16.88;41.27;94368.91;5046668;28;20206;-82
2023/04/29 15:48:19;;;;;;;9.13;5.10;;;;;;;16.72;41.62;94367.34;5049035;28;20202;-83
2023/04/29 15:50:46;;;;;;;6.37;5.00;;;;;;;16.76;41.30;94369.19;5049694;28;20202;-82
2023/04/29 15:53:13;;;;;;;11.33;4.67;;;;;;;16.72;41.77;94369.97;5049128;28;20202;-83
2023/04/29 15:55:40;;;;;;;9.43;4.97;;;;;;;16.71;41.94;94371.03;5048402;28;20229;-83
2023/04/29 15:58:06;;;;;;;8.50;4.80;;;;;;;16.67;41.98;94368.13;5049316;28;21452;-82
2023/04/29 16:00:33;;;;;;;10.53;4.03;;;;;;;16.61;42.15;94360.50;5053010;28;20656;-84
2023/04/29 16:03:00;;;;;;;7.17;3.83;;;;;;;16.60;41.80;94361.56;5046682;28;20213;-82
2023/04/29 16:05:30;;;;;;;8.57;4.37;;;;;;;16.61;42.17;94371.00;5047669;28;20297;-82
2023/04/29 16:07:57;;;;;;;7.53;4.37;;;;;;;16.57;42.31;94369.94;5045586;28;20234;-83
2023/04/29 16:10:24;;;;;;;9.93;4.60;;;;;;;16.57;42.23;94365.50;5052376;28;20206;-83
2023/04/29 16:12:50;;;;;;;10.87;4.77;;;;;;;16.57;42.13;94369.94;5046867;28;20276;-84
2023/04/29 16:15:17;;;;;;;9.97;5.70;;;;;;;16.64;42.03;94368.66;5051697;28;20218;-83
2023/04/29 16:17:44;;;;;;;12.93;5.80;;;;;;;16.63;42.08;94371.53;5041604;28;20201;-83
2023/04/29 16:20:11;;;;;;;11.50;5.63;;;;;;;16.61;42.02;94373.63;5039183;28;20683;-84
2023/04/29 16:22:40;;;;;;;11.27;5.87;;;;;;;16.34;42.29;94353.63;5045238;28;20282;-81
2023/04/29 16:25:07;;;;;;;16.80;6.50;;;;;;;16.42;42.86;94371.47;5045861;28;20187;-82
2023/04/29 16:27:34;;;;;;;13.10;6.63;;;;;;;16.32;43.03;94360.19;5053004;28;20201;-83
2023/04/29 16:30:02;;;;;;;16.30;7.70;;;;;;;16.39;43.44;94376.47;5046952;28;20253;-83
2023/04/29 16:32:29;;;;;;;26.20;10.73;;;;;;;16.40;43.29;94383.28;5047665;28;20202;-81
2023/04/29 16:34:56;;;;;;;21.70;9.57;;;;;;;16.36;44.06;94374.38;5041761;28;20319;-81
2023/04/29 16:37:26;;;;;;;25.33;10.10;;;;;;;16.28;44.46;94377.47;5050451;28;20209;-81
2023/04/29 16:39:54;;;;;;;13.60;6.90;;;;;;;16.28;44.77;94380.09;5044023;28;20217;-82
2023/04/29 16:42:21;;;;;;;11.37;4.80;;;;;;;16.24;45.17;94377.25;5048416;28;20218;-81
2023/04/29 16:44:48;;;;;;;13.80;6.30;;;;;;;16.29;46.67;94385.09;5044664;28;20206;-81
2023/04/29 16:47:17;;;;;;;10.60;6.27;;;;;;;16.22;47.15;94386.41;5046865;28;20190;-82
2023/04/29 16:49:44;;;;;;;9.23;5.93;;;;;;;16.16;48.18;94392.69;5031286;28;20251;-81
2023/04/29 16:52:12;;;;;;;10.00;5.07;;;;;;;16.12;47.94;94396.88;5049411;28;20601;-82
2023/04/29 16:54:40;;;;;;;8.97;4.80;;;;;;;16.07;48.89;94404.72;5050571;28;20253;-80
2023/04/29 16:57:10;;;;;;;11.20;4.47;;;;;;;16.05;49.42;94398.94;5049735;28;20221;-82
2023/04/29 16:59:37;;;;;;;8.00;4.90;;;;;;;15.96;50.24;94397.88;5048986;28;20231;-82
2023/04/29 17:02:06;;;;;;;7.30;4.50;;;;;;;15.81;50.57;94395.97;5048536;28;20248;-81
2023/04/29 17:04:33;;;;;;;6.83;5.20;;;;;;;15.86;52.45;94404.66;5050124;28;20201;-81
2023/04/29 17:07:01;;;;;;;7.53;4.60;;;;;;;15.84;53.29;94400.72;5054744;28;20218;-81
2023/04/29 17:09:29;;;;;;;6.27;4.30;;;;;;;15.75;53.28;94395.19;5045072;28;20202;-81
2023/04/29 17:11:56;;;;;;;10.80;4.90;;;;;;;15.80;52.42;94399.63;5044031;28;20283;-82
2023/04/29 17:14:25;;;;;;;8.80;5.07;;;;;;;15.75;51.92;94403.03;5047622;28;20214;-80
2023/04/29 17:16:52;;;;;;;11.77;6.63;;;;;;;15.62;51.73;94406.09;5046266;28;20309;-80
2023/04/29 17:19:29;;;;;;;14.77;7.50;;;;;;;15.55;51.83;94404.75;5043621;28;20267;-82
2023/04/29 17:21:56;;;;;;;11.97;7.47;;;;;;;15.50;51.60;94402.88;5041472;28;20283;-81
2023/04/29 17:24:29;;;;;;;10.37;6.73;;;;;;;15.50;51.62;94413.38;5044540;28;20752;-82
2023/04/29 17:26:58;;;;;;;9.33;5.63;;;;;;;15.37;51.89;94402.53;5042402;28;20678;-83
2023/04/29 17:29:26;;;;;;;9.10;5.03;;;;;;;15.27;52.49;94409.28;5040331;28;20261;-81
2023/04/29 17:31:58;;;;;;;9.70;5.20;;;;;;;15.21;52.54;94404.25;5040423;28;20231;-82
2023/04/29 17:34:29;;;;;;;7.33;4.10;;;;;;;15.30;52.51;94408.78;5050714;28;20234;-80
2023/04/29 17:36:56;;;;;;;7.50;4.53;;;;;;;15.21;52.72;94410.28;5048463;28;20206;-82
2023/04/29 17:39:23;;;;;;;9.10;4.67;;;;;;;15.16;53.53;94410.25;5044107;28;20321;-81
2023/04/29 17:41:50;;;;;;;9.77;4.83;;;;;;;15.15;54.41;94411.28;5043131;28;20267;-82
2023/04/29 17:44:16;;;;;;;7.53;5.00;;;;;;;15.17;54.90;94408.44;5048060;28;20190;-82
2023/04/29 17:46:47;;;;;;;6.90;4.70;;;;;;;15.16;55.49;94409.47;5045124;28;20194;-83
2023/04/29 17:49:14;;;;;;;8.07;4.40;;;;;;;15.09;55.89;94407.06;5045337;28;20198;-81
2023/04/29 17:51:41;;;;;;;7.10;4.67;;;;;;;15.07;57.17;94410.97;5044829;28;20210;-81
2023/04/29 17:54:09;;;;;;;7.30;4.90;;;;;;;14.96;57.95;94396.25;5051148;28;20197;-81
2023/04/29 17:56:36;;;;;;;9.37;5.20;;;;;;;14.91;59.50;94393.59;5041710;28;20696;-80
2023/04/29 17:59:04;;;;;;;9.27;6.37;;;;;;;14.97;60.26;94409.09;5041119;28;20206;-81
2023/04/29 18:01:31;;;;;;;11.13;6.47;;;;;;;14.96;61.10;94406.72;5043342;28;20202;-82
2023/04/29 18:03:59;;;;;;;9.93;6.30;;;;;;;14.88;62.75;94404.56;5044788;28;20214;-82
2023/04/29 18:06:27;;;;;;;10.00;6.47;;;;;;;14.82;63.35;94406.34;5041219;28;20202;-82
2023/04/29 18:08:53;;;;;;;10.60;6.47;;;;;;;14.72;63.83;94407.03;5042132;28;20209;-82
2023/04/29 18:11:20;;;;;;;10.63;6.50;;;;;;;14.72;64.71;94406.25;5044596;28;20202;-81
2023/04/29 18:13:53;;;;;;;11.13;6.83;;;;;;;14.69;65.59;94404.13;5045390;28;20194;-83
2023/04/29 18:16:19;;;;;;;14.07;7.00;;;;;;;14.56;66.11;94391.47;5037314;28;20214;-85
2023/04/29 18:18:46;;;;;;;14.00;8.13;;;;;;;14.48;67.05;94378.88;5041376;28;20204;-86
2023/04/29 18:21:20;;;;;;;11.70;7.27;;;;;;;14.51;67.15;94391.44;5044645;28;20198;-85
2023/04/29 18:23:46;;;;;;;9.87;6.50;;;;;;;14.55;68.57;94405.59;5042799;28;20194;-88
2023/04/29 18:26:13;;;;;;;10.27;6.90;;;;;;;14.42;68.92;94404.19;5043085;28;20891;-83
2023/04/29 18:28:40;;;;;;;12.20;7.20;;;;;;;14.54;69.95;94406.63;5045843;28;20675;-83
2023/04/29 18:31:07;;;;;;;11.53;7.83;;;;;;;14.56;70.75;94407.16;5045147;28;20230;-83
2023/04/29 18:33:35;;;;;;;12.40;7.83;;;;;;;14.55;71.50;94405.59;5045105;28;20637;-83
2023/04/29 18:36:02;;;;;;;14.07;8.33;;;;;;;14.49;72.41;94401.34;5035706;28;20230;-83
2023/04/29 18:38:30;;;;;;;13.17;8.00;;;;;;;14.52;72.86;94406.88;5040139;22;20240;-80
2023/04/29 18:40:57;;;;;;;16.97;8.33;;;;;;;14.50;73.61;94406.34;5043040;28;20205;-81
2023/04/29 18:43:27;;;;;;;18.27;8.37;;;;;;;14.54;73.09;94404.03;5047182;28;20198;-81
2023/04/29 18:45:54;;;;;;;14.13;7.40;;;;;;;14.48;74.01;94405.00;5047212;28;20583;-82
2023/04/29 18:48:28;;;;;;;28.10;9.33;;;;;;;14.47;74.45;94412.06;5046311;28;20198;-81
2023/04/29 18:50:57;;;;;;;17.53;8.90;;;;;;;14.50;75.03;94422.03;5048998;28;20265;-79
2023/04/29 18:53:25;;;;;;;15.53;8.83;;;;;;;14.46;75.09;94423.56;5046358;28;20214;-81
2023/04/29 18:55:53;;;;;;;15.30;9.23;;;;;;;14.42;75.26;94411.22;5046872;28;20221;-81
2023/04/29 18:58:20;;;;;;;13.23;9.67;;;;;;;14.57;75.46;94422.59;5046433;28;20683;-82
2023/04/29 19:00:47;;;;;;;15.10;9.53;;;;;;;14.59;76.01;94428.41;5047996;28;20209;-82
2023/04/29 19:03:14;;;;;;;18.47;9.67;;;;;;;14.59;76.73;94433.63;5046433;28;20197;-81
2023/04/29 19:05:41;;;;;;;15.53;9.23;;;;;;;14.45;76.94;94413.34;5044607;28;20667;-81
2023/04/29 19:08:08;;;;;;;15.67;9.87;;;;;;;14.50;77.45;94432.50;5046952;28;20198;-81
2023/04/29 19:10:35;;;;;;;14.90;9.17;;;;;;;14.46;76.78;94428.78;5047465;28;20229;-81
2023/04/29 19:13:03;;;;;;;15.47;8.97;;;;;;;14.37;76.99;94422.41;5046473;28;20209;-80
2023/04/29 19:15:30;;;;;;;14.13;8.77;;;;;;;14.38;76.87;94424.00;5045826;28;20213;-81
2023/04/29 19:17:57;;;;;;;11.37;8.53;;;;;;;14.35;76.81;94410.63;5043469;28;20222;-79
2023/04/29 19:20:25;;;;;;;16.50;9.67;;;;;;;14.39;77.42;94415.13;5046892;28;20202;-85
2023/04/29 19:22:52;;;;;;;14.10;9.13;;;;;;;14.45;77.35;94418.56;5045642;28;20256;-78
2023/04/29 19:25:20;;;;;;;12.83;8.97;;;;;;;14.47;77.52;94427.75;5043839;28;20232;-79
2023/04/29 19:27:47;;;;;;;22.30;10.10;;;;;;;14.51;76.55;94426.22;5044457;28;20197;-79
2023/04/29 19:30:16;;;;;;;15.70;9.53;;;;;;;14.40;76.85;94416.69;5043916;28;20223;-80
2023/04/29 19:32:42;;;;;;;21.67;11.80;;;;;;;14.47;76.40;94432.97;5043897;28;20700;-81
2023/04/29 19:35:10;;;;;;;20.40;11.40;;;;;;;14.47;74.20;94434.81;5045030;28;20259;-80
2023/04/29 19:37:37;;;;;;;17.43;10.40;;;;;;;14.35;73.12;94410.63;5048796;28;20613;-82
2023/04/29 19:40:12;;;;;;;15.73;10.20;;;;;;;14.36;72.17;94423.47;5065877;28;20632;-80
2023/04/29 19:42:39;;;;;;;19.77;9.60;;;;;;;14.39;72.37;94432.63;5063151;28;20209;-79
2023/04/29 19:45:08;;;;;;;23.20;10.10;;;;;;;14.41;71.80;94428.75;5065498;28;20652;-82
2023/04/29 19:47:36;;;;;;;17.87;9.43;;;;;;;14.31;71.01;94412.13;5049332;28;20581;-80
2023/04/29 19:50:06;;;;;;;14.13;9.17;;;;;;;14.39;70.96;94430.81;5065798;28;20193;-78
2023/04/29 19:52:33;;;;;;;16.67;9.20;;;;;;;14.40;71.13;94440.22;5064724;28;20197;-79
2023/04/29 19:55:00;;;;;;;22.40;10.43;;;;;;;14.43;70.15;94431.88;5068228;28;20201;-80
2023/04/29 19:57:27;;;;;;;14.53;9.80;;;;;;;14.46;70.65;94438.47;5072688;28;20217;-84
2023/04/29 19:59:54;;;;;;;18.97;9.90;;;;;;;14.41;69.12;94430.56;5071589;28;20294;-80
2023/04/29 20:02:20;;;;;;;17.20;9.40;;;;;;;14.39;68.83;94430.81;5070916;28;20247;-82
2023/04/29 20:04:49;;;;;;;15.37;9.10;;;;;;;14.32;68.62;94427.59;5070657;28;21544;-83
2023/04/29 20:07:15;;;;;;;17.90;9.43;;;;;;;14.38;68.27;94431.03;5072829;28;20213;-83
2023/04/29 20:09:43;;;;;;;16.17;9.37;;;;;;;14.33;68.27;94425.78;5068848;28;20193;-82
2023/04/29 20:12:10;;;;;;;17.00;9.87;;;;;;;14.30;68.54;94427.03;5070806;28;20207;-82
2023/04/29 20:14:37;;;;;;;18.63;9.80;;;;;;;14.21;68.66;94423.28;5070038;28;20218;-81
2023/04/29 20:17:04;;;;;;;15.67;9.17;;;;;;;14.26;68.81;94433.78;5070576;28;20631;-81
2023/04/29 20:19:31;;;;;;;15.43;9.10;;;;;;;14.21;69.53;94429.28;5070474;28;20459;-81
2023/04/29 20:22:00;;;;;;;21.37;9.20;;;;;;;14.29;69.16;94432.50;5069808;28;20609;-83
2023/04/29 20:24:26;;;;;;;14.23;8.90;;;;;;;14.27;69.59;94424.91;5070325;28;20240;-82
2023/04/29 20:26:53;;;;;;;18.77;9.10;;;;;;;14.27;69.51;94439.78;5069995;28;20212;-81
2023/04/29 20:29:20;;;;;;;16.93;10.10;;;;;;;14.22;69.76;94427.47;5068347;28;20263;-82
2023/04/29 20:31:47;;;;;;;19.97;9.90;;;;;;;14.17;69.92;94425.59;5068492;28;20936;-81
2023/04/29 20:34:14;;;;;;;14.80;9.20;;;;;;;14.17;70.49;94430.00;5071363;28;20636;-82
2023/04/29 20:36:41;;;;;;;19.87;10.07;;;;;;;14.15;70.02;94421.63;5068280;28;20707;-84
2023/04/29 20:39:09;;;;;;;16.50;10.03;;;;;;;14.15;70.11;94419.81;5068385;28;20221;-83
2023/04/29 20:41:36;;;;;;;14.87;10.43;;;;;;;14.13;70.89;94419.28;5067956;28;20201;-82
2023/04/29 20:44:03;;;;;;;17.57;10.33;;;;;;;14.10;70.84;94417.16;5069318;28;20667;-82
2023/04/29 20:46:34;;;;;;;17.20;11.27;;;;;;;14.12;70.62;94417.69;5065913;28;20801;-82
2023/04/29 20:49:05;;;;;;;28.33;15.37;;;;;;;14.16;69.34;94412.78;5074874;28;20224;-82
2023/04/29 20:51:32;;;;;;;33.57;18.07;;;;;;;14.11;70.13;94417.94;5066447;28;20198;-81
2023/04/29 20:53:59;;;;;;;29.83;17.00;;;;;;;14.07;69.22;94404.59;5069241;28;20251;-81
2023/04/29 20:56:27;;;;;;;31.97;17.93;;;;;;;14.09;69.29;94418.19;5067859;28;20208;-81
2023/04/29 20:58:55;;;;;;;26.53;17.17;;;;;;;14.07;69.61;94412.41;5069080;28;20214;-82
2023/04/29 21:01:22;;;;;;;30.67;17.23;;;;;;;13.98;70.28;94416.50;5068737;28;20209;-82
2023/04/29 21:03:48;;;;;;;30.67;17.10;;;;;;;13.91;71.41;94410.66;5069839;28;20664;-82
2023/04/29 21:06:16;;;;;;;31.97;16.37;;;;;;;13.88;71.59;94418.97;5068396;28;20216;-82
2023/04/29 21:08:43;;;;;;;28.70;16.40;;;;;;;13.86;73.11;94415.03;5065166;28;20678;-82
2023/04/29 21:11:10;;;;;;;29.37;16.47;;;;;;;13.77;74.33;94408.66;5069482;28;20198;-81
2023/04/29 21:13:38;;;;;;;29.13;17.57;;;;;;;13.80;75.57;94410.78;5068590;28;21705;-82
2023/04/29 21:16:05;;;;;;;26.97;15.07;;;;;;;13.81;75.39;94410.56;5067936;28;20216;-82
2023/04/29 21:18:32;;;;;;;26.77;13.63;;;;;;;13.85;75.27;94416.84;5067203;28;20634;-82
2023/04/29 21:20:59;;;;;;;24.07;12.47;;;;;;;13.86;74.66;94412.41;5069102;28;20205;-81
2023/04/29 21:23:25;;;;;;;19.37;12.03;;;;;;;13.85;74.33;94411.63;5066281;28;20208;-79
2023/04/29 21:25:52;;;;;;;20.70;11.03;;;;;;;13.88;73.96;94411.13;5066736;28;20213;-83
2023/04/29 21:28:19;;;;;;;17.70;10.83;;;;;;;13.84;74.04;94410.06;5066984;28;21068;-83
2023/04/29 21:30:47;;;;;;;17.87;10.70;;;;;;;13.75;73.83;94403.69;5069395;28;20207;-82
2023/04/29 21:33:14;;;;;;;20.90;10.63;;;;;;;13.75;74.26;94414.13;5067589;28;20652;-83
2023/04/29 21:35:42;;;;;;;17.80;11.10;;;;;;;13.73;74.24;94410.19;5068358;28;20194;-80
2023/04/29 21:38:09;;;;;;;17.63;11.07;;;;;;;13.69;74.99;94406.47;5067416;28;20695;-80
2023/04/29 21:40:39;;;;;;;20.90;11.00;;;;;;;13.73;74.82;94407.56;5069089;28;20193;-81
2023/04/29 21:43:06;;;;;;;19.40;11.53;;;;;;;13.73;75.43;94410.19;5064475;28;20255;-82